Terminal Aerodrome Forecast
Issued by NWS St Louis, MO

Home | Current Version | Previous Version | Text Only | Print | Product List | Glossary On
Versions: 1 2 3 4 5 6 7 8 9 10 11 12 13 14 15 16 17 18 19 20 21 22 23 24 25 26
020
FTUS43 KLSX 011810 CCA
TAFSTL
TAF COR
KSTL 011810Z 0118/0224 30009KT P6SM VCSH SCT015 BKN040
      TEMPO 0118/0120 BKN015
     FM020100 VRB04KT P6SM BKN035
     FM021500 32004KT P6SM BKN025
     FM021900 33006KT P6SM BKN035=

USA.gov is the U.S. government's official web portal to all federal, state and local government web resources and services.